Time;durP1;ratioP1;P1;durP2;ratioP2;P2;SDS_P1;SDS_P2;PMS_P1;PMS_P2;Temp;Humidity;BMP_temperature;BMP_pressure;BME280_temperature;BME280_humidity;BME280_pressure;Samples;Min_cycle;Max_cycle;Signal;HPM_P1;HPM_P2
2021/12/19 00:00:11;;;;;;;20.00;16.05;;;;;;;5.63;94.07;103659.63;5005443;28;20041;-63
2021/12/19 00:10:48;;;;;;;22.83;17.42;;;;;;;5.60;94.72;103649.34;5003912;28;20389;-64
2021/12/19 00:13:14;;;;;;;23.08;16.40;;;;;;;5.60;94.17;103644.19;5011746;28;20055;-64
2021/12/19 00:15:39;;;;;;;27.70;19.58;;;;;;;5.61;94.74;103648.47;4998064;28;20099;-65
2021/12/19 00:18:05;;;;;;;27.65;20.33;;;;;;;5.60;94.94;103639.03;5012557;28;20029;-64
2021/12/19 00:20:30;;;;;;;28.27;20.55;;;;;;;5.60;94.50;103632.19;5011374;28;20121;-64
2021/12/19 00:22:55;;;;;;;29.67;20.92;;;;;;;5.60;94.52;103644.19;5009164;28;20112;-64
2021/12/19 00:25:21;;;;;;;29.75;20.52;;;;;;;5.58;95.18;103645.97;5006146;28;20029;-64
2021/12/19 00:27:46;;;;;;;28.27;20.20;;;;;;;5.57;95.24;103641.69;5012393;28;20030;-64
2021/12/19 00:30:11;;;;;;;28.25;19.08;;;;;;;5.56;95.08;103637.38;5011927;28;20022;-65
2021/12/19 00:32:37;;;;;;;27.55;17.95;;;;;;;5.54;94.53;103640.00;5009473;28;20030;-64
2021/12/19 00:35:03;;;;;;;27.27;17.15;;;;;;;5.54;94.80;103634.00;5005916;28;20474;-65
2021/12/19 00:37:28;;;;;;;24.92;16.63;;;;;;;5.51;94.49;103634.06;4996744;28;20390;-64
2021/12/19 00:39:53;;;;;;;27.85;17.38;;;;;;;5.52;94.74;103630.59;5007664;28;20029;-64
2021/12/19 00:42:30;;;;;;;24.20;15.68;;;;;;;5.50;94.60;103632.34;5007042;28;20462;-64
2021/12/19 00:45:00;;;;;;;24.98;15.50;;;;;;;5.47;94.79;103627.25;5011258;28;20033;-64
2021/12/19 00:47:26;;;;;;;23.90;15.40;;;;;;;5.44;94.28;103629.84;5007356;28;20025;-64
2021/12/19 00:49:51;;;;;;;25.50;16.50;;;;;;;5.45;94.28;103626.41;4997432;28;20035;-64
2021/12/19 00:52:17;;;;;;;25.02;16.25;;;;;;;5.43;94.65;103615.28;4994866;28;20390;-64
2021/12/19 00:54:42;;;;;;;25.65;16.17;;;;;;;5.43;95.08;103628.16;5001235;28;20057;-66
2021/12/19 00:57:07;;;;;;;29.33;18.00;;;;;;;5.44;95.24;103619.56;5012775;28;20077;-65
2021/12/19 00:59:33;;;;;;;29.98;18.27;;;;;;;5.43;95.12;103617.88;5002869;28;20061;-64
2021/12/19 01:01:58;;;;;;;29.98;18.08;;;;;;;5.41;95.47;103619.63;5008107;28;20101;-65
2021/12/19 01:04:25;;;;;;;32.08;18.52;;;;;;;5.41;95.01;103617.91;5010479;28;20026;-66
2021/12/19 01:06:50;;;;;;;29.00;17.42;;;;;;;5.38;95.17;103619.66;4976068;28;20140;-65
2021/12/19 01:09:17;;;;;;;31.20;17.70;;;;;;;5.37;95.24;103615.38;5006655;28;20525;-65
2021/12/19 01:11:47;;;;;;;30.92;17.50;;;;;;;5.37;95.67;103610.25;5012718;28;20117;-64
2021/12/19 01:14:12;;;;;;;28.65;17.10;;;;;;;5.38;95.08;103612.78;5006209;28;20049;-65
2021/12/19 01:16:37;;;;;;;33.35;18.50;;;;;;;5.39;95.34;103609.34;5001503;28;20466;-65
2021/12/19 01:19:03;;;;;;;32.88;19.13;;;;;;;5.41;95.19;103612.75;5006854;28;20359;-64
2021/12/19 01:21:28;;;;;;;33.92;20.02;;;;;;;5.39;94.95;103608.47;5012208;28;20462;-65
2021/12/19 01:23:54;;;;;;;34.15;19.45;;;;;;;5.33;95.29;103610.31;4993181;28;20022;-65
2021/12/19 01:26:19;;;;;;;34.75;20.17;;;;;;;5.35;95.67;103599.13;4998451;28;20021;-64
2021/12/19 01:28:44;;;;;;;32.20;19.95;;;;;;;5.35;95.46;103606.84;5005516;28;20490;-64
2021/12/19 01:31:10;;;;;;;33.78;19.35;;;;;;;5.36;95.44;103604.25;5006130;28;20038;-65
2021/12/19 01:33:36;;;;;;;37.85;20.40;;;;;;;5.34;95.42;103600.84;4995220;28;20129;-64
2021/12/19 01:36:03;;;;;;;38.67;21.60;;;;;;;5.30;95.55;103605.19;5003529;28;20038;-64
2021/12/19 01:38:30;;;;;;;39.83;21.83;;;;;;;5.29;95.85;103602.66;5001437;28;20559;-64
2021/12/19 01:40:55;;;;;;;39.20;21.55;;;;;;;5.28;95.85;103601.78;5001508;28;20073;-64
2021/12/19 01:43:21;;;;;;;43.40;22.92;;;;;;;5.23;95.81;103595.00;4997629;28;20105;-64
2021/12/19 01:45:46;;;;;;;41.63;22.08;;;;;;;5.25;96.20;103591.53;4992825;28;20559;-64
2021/12/19 01:48:13;;;;;;;45.38;23.42;;;;;;;5.25;95.89;103596.69;4992476;28;20425;-64
2021/12/19 01:50:40;;;;;;;47.40;23.42;;;;;;;5.22;95.93;103601.88;5004534;28;20064;-64
2021/12/19 01:53:08;;;;;;;44.65;23.92;;;;;;;5.23;96.75;103595.88;4992396;28;20474;-64
2021/12/19 01:55:34;;;;;;;48.00;24.35;;;;;;;5.23;96.89;103588.16;4990747;28;20038;-65
2021/12/19 01:58:00;;;;;;;44.95;23.70;;;;;;;5.24;96.10;103589.84;5001347;28;20040;-64
2021/12/19 02:00:31;;;;;;;44.03;23.63;;;;;;;5.22;96.54;103585.59;4999157;28;20541;-64
2021/12/19 02:02:57;;;;;;;45.03;23.80;;;;;;;5.20;96.49;103583.03;4997242;28;20030;-64
2021/12/19 02:05:24;;;;;;;46.95;23.70;;;;;;;5.22;97.07;103590.75;5005391;28;20485;-64
2021/12/19 02:07:51;;;;;;;46.50;24.10;;;;;;;5.19;96.06;103585.63;4994272;28;20326;-66
2021/12/19 02:10:19;;;;;;;41.55;22.83;;;;;;;5.16;96.28;103586.53;4987117;28;20076;-64
2021/12/19 02:12:47;;;;;;;42.30;22.83;;;;;;;5.17;96.35;103583.09;4986187;28;20104;-64
2021/12/19 02:15:20;;;;;;;39.50;22.70;;;;;;;5.14;95.87;103580.53;5005069;28;20467;-64
2021/12/19 02:17:47;;;;;;;42.63;23.23;;;;;;;5.16;95.98;103585.66;4996701;28;20034;-66
2021/12/19 02:20:13;;;;;;;43.53;23.08;;;;;;;5.14;96.07;103590.84;5009278;28;20022;-64
2021/12/19 02:22:39;;;;;;;39.75;23.05;;;;;;;5.13;96.60;103583.16;5009052;28;20040;-64
2021/12/19 02:25:05;;;;;;;37.30;20.27;;;;;;;5.11;96.59;103572.91;4992350;28;20026;-66
2021/12/19 02:27:30;;;;;;;37.22;20.27;;;;;;;5.09;96.36;103569.47;5009354;28;20068;-65
2021/12/19 02:29:56;;;;;;;35.05;20.40;;;;;;;5.10;96.65;103570.31;5001810;28;20172;-65
2021/12/19 02:32:23;;;;;;;37.30;20.60;;;;;;;5.00;95.90;103564.47;4996443;28;20037;-64
2021/12/19 02:34:51;;;;;;;35.28;20.88;;;;;;;5.02;96.12;103562.72;5010763;28;20080;-65
2021/12/19 02:40:29;;;;;;;36.80;20.60;;;;;;;4.98;96.13;103561.91;4973764;28;20045;-65
2021/12/19 02:48:25;;;;;;;28.48;17.40;;;;;;;4.91;95.94;103554.31;5006649;28;20076;-64
2021/12/19 02:50:53;;;;;;;28.55;16.70;;;;;;;4.90;96.37;103550.03;5003741;28;20450;-65
2021/12/19 02:53:29;;;;;;;29.30;16.70;;;;;;;4.87;96.38;103553.50;4991272;28;20430;-65
2021/12/19 02:55:55;;;;;;;33.17;17.95;;;;;;;4.84;95.97;103548.41;4996650;28;20189;-65
2021/12/19 02:58:20;;;;;;;32.67;18.40;;;;;;;4.84;96.09;103548.41;5010124;28;20530;-64
2021/12/19 03:00:46;;;;;;;34.17;19.50;;;;;;;4.83;95.90;103551.00;4993855;28;20524;-65
2021/12/19 03:03:11;;;;;;;35.70;19.13;;;;;;;4.82;95.95;103549.28;5005160;28;20029;-64
2021/12/19 03:05:37;;;;;;;36.90;21.08;;;;;;;4.83;96.56;103545.88;4996651;28;20069;-64
2021/12/19 03:08:03;;;;;;;38.53;21.33;;;;;;;4.84;96.15;103542.41;4978912;28;20026;-64
2021/12/19 03:18:29;;;;;;;33.92;18.90;;;;;;;4.78;96.53;103533.91;4996690;28;20045;-64
2021/12/19 03:20:54;;;;;;;30.90;16.33;;;;;;;4.75;96.30;103538.22;4996513;28;20037;-64
2021/12/19 03:23:21;;;;;;;29.23;16.30;;;;;;;4.71;96.50;103531.47;4997101;28;20030;-64
2021/12/19 03:25:46;;;;;;;28.48;16.00;;;;;;;4.68;96.67;103529.75;5004501;28;20030;-64
2021/12/19 03:28:13;;;;;;;29.33;15.07;;;;;;;4.62;96.12;103522.13;4997873;28;20027;-64
2021/12/19 03:30:40;;;;;;;28.05;15.02;;;;;;;4.62;96.56;103522.13;5014834;28;20440;-64
2021/12/19 03:33:06;;;;;;;25.70;14.70;;;;;;;4.63;96.29;103517.84;5011622;28;20105;-64
2021/12/19 03:35:32;;;;;;;20.27;11.00;;;;;;;4.62;96.51;103522.13;5010310;28;20040;-64
2021/12/19 03:38:00;;;;;;;19.48;10.43;;;;;;;4.61;96.13;103520.44;5011637;28;20420;-64
2021/12/19 03:40:35;;;;;;;16.47;9.10;;;;;;;4.62;96.04;103517.00;5001236;28;20034;-64
2021/12/19 03:43:04;;;;;;;16.15;9.63;;;;;;;4.60;95.86;103513.59;4978133;28;20289;-65
2021/12/19 03:45:29;;;;;;;15.50;8.63;;;;;;;4.56;95.64;103514.50;5001119;28;20041;-64
2021/12/19 03:47:55;;;;;;;13.98;8.18;;;;;;;4.53;95.37;103512.00;5012329;28;20034;-64
2021/12/19 03:50:23;;;;;;;13.48;8.00;;;;;;;4.47;95.33;103512.03;5009983;28;20098;-64
2021/12/19 03:52:53;;;;;;;12.60;7.68;;;;;;;4.48;95.12;103509.47;5006114;28;20030;-65
2021/12/19 03:55:21;;;;;;;10.98;6.95;;;;;;;4.50;95.18;103506.88;5006353;28;20064;-65
2021/12/19 03:57:46;;;;;;;10.50;6.45;;;;;;;4.43;94.90;103495.84;5008367;28;20125;-64
2021/12/19 04:00:15;;;;;;;11.18;6.97;;;;;;;4.41;94.61;103506.97;4994886;28;20489;-65
2021/12/19 04:02:40;;;;;;;10.00;6.10;;;;;;;4.41;94.87;103506.97;5007072;28;20121;-64
2021/12/19 04:05:06;;;;;;;9.48;6.07;;;;;;;4.36;94.47;103493.34;4994914;28;20117;-65
2021/12/19 04:07:32;;;;;;;10.43;6.07;;;;;;;4.33;94.88;103493.41;5010701;28;20041;-67
2021/12/19 04:09:57;;;;;;;9.85;5.78;;;;;;;4.36;94.67;103489.09;5000041;28;20034;-64
2021/12/19 04:12:28;;;;;;;10.40;5.95;;;;;;;4.39;94.69;103494.16;4996018;28;20189;-64
2021/12/19 04:14:54;;;;;;;12.13;6.30;;;;;;;4.38;94.59;103471.06;5006090;28;20030;-64
2021/12/19 04:17:20;;;;;;;11.38;6.40;;;;;;;4.37;94.91;103469.38;5001141;28;20337;-64
2021/12/19 04:19:45;;;;;;;10.35;6.28;;;;;;;4.41;95.16;103468.44;5013107;28;20425;-64
2021/12/19 04:22:10;;;;;;;11.48;6.78;;;;;;;4.42;95.09;103458.16;4996505;28;20042;-66
2021/12/19 04:24:36;;;;;;;11.93;7.10;;;;;;;4.42;95.03;103462.47;5000946;28;20026;-64
2021/12/19 04:27:01;;;;;;;12.20;6.45;;;;;;;4.42;94.93;103462.47;5000071;28;20088;-64
2021/12/19 04:29:27;;;;;;;10.90;6.43;;;;;;;4.44;95.19;103465.84;5012940;28;20026;-64
2021/12/19 04:31:54;;;;;;;11.05;5.90;;;;;;;4.40;95.42;103451.31;5000215;28;20029;-64
2021/12/19 04:34:23;;;;;;;11.30;6.57;;;;;;;4.43;95.12;103448.72;5010711;28;20065;-64
2021/12/19 04:36:56;;;;;;;11.30;6.10;;;;;;;4.42;95.31;103447.03;5002095;28;20117;-64
2021/12/19 04:39:30;;;;;;;12.20;6.22;;;;;;;4.42;95.36;103441.91;5001301;28;20025;-64
2021/12/19 04:42:56;;;;;;;11.90;5.75;;;;;;;4.43;95.43;103443.59;5007407;28;20137;-65
2021/12/19 05:01:01;;;;;;;9.30;4.38;;;;;;;4.44;95.94;103425.56;4941232;29;20039;-65
2021/12/19 05:03:34;;;;;;;10.57;4.68;;;;;;;4.39;95.81;103426.50;4945788;29;20333;-64
2021/12/19 05:06:10;;;;;;;10.50;5.07;;;;;;;4.42;95.59;103421.34;4971670;28;20485;-64
2021/12/19 05:16:28;;;;;;;12.20;6.18;;;;;;;4.44;95.77;103425.56;5007741;28;20034;-65
2021/12/19 05:19:01;;;;;;;12.18;6.28;;;;;;;4.46;96.14;103422.97;5000867;28;20052;-67
2021/12/19 05:21:28;;;;;;;12.18;6.20;;;;;;;4.47;96.28;103422.09;4998042;28;20121;-64
2021/12/19 05:26:22;;;;;;;12.43;5.32;;;;;;;4.52;95.90;103422.88;5010464;28;20030;-64
2021/12/19 05:28:48;;;;;;;10.45;5.45;;;;;;;4.50;96.00;103419.50;4993447;28;20026;-66
2021/12/19 05:31:15;;;;;;;11.38;5.97;;;;;;;4.49;95.79;103423.78;5003154;28;20033;-64
2021/12/19 05:33:40;;;;;;;14.13;6.90;;;;;;;4.50;95.86;103422.06;5011738;28;20032;-64
2021/12/19 05:44:12;;;;;;;12.55;6.38;;;;;;;4.55;96.02;103412.56;5002705;28;20049;-64
2021/12/19 05:46:44;;;;;;;13.82;6.78;;;;;;;4.55;95.92;103412.56;4997545;28;20093;-64
2021/12/19 05:49:10;;;;;;;14.98;7.45;;;;;;;4.57;95.99;103413.41;5004318;28;20034;-64
2021/12/19 05:51:36;;;;;;;13.93;7.35;;;;;;;4.58;96.24;103411.66;5002071;28;20492;-64
2021/12/19 05:54:02;;;;;;;13.90;7.13;;;;;;;4.60;96.42;103404.81;5011817;28;20037;-64
2021/12/19 05:56:28;;;;;;;15.02;7.13;;;;;;;4.60;96.59;103400.50;4999718;28;20055;-65
2021/12/19 05:58:54;;;;;;;12.55;6.25;;;;;;;4.60;96.40;103387.66;5006981;28;20033;-64
2021/12/19 06:01:20;;;;;;;13.90;6.68;;;;;;;4.56;96.07;103388.56;5001964;28;20073;-64
2021/12/19 06:03:45;;;;;;;13.60;6.55;;;;;;;4.59;96.37;103388.53;4995662;28;20456;-64
2021/12/19 06:06:10;;;;;;;12.80;6.57;;;;;;;4.57;96.15;103385.13;5006666;28;20526;-64
2021/12/19 06:08:36;;;;;;;12.50;6.22;;;;;;;4.61;96.72;103391.91;4991797;28;20068;-65
2021/12/19 06:11:01;;;;;;;13.07;6.60;;;;;;;4.62;96.56;103392.78;4995798;28;20534;-64
2021/12/19 06:13:27;;;;;;;14.02;6.47;;;;;;;4.61;96.88;103391.06;4992940;28;20034;-64
2021/12/19 06:15:55;;;;;;;12.50;6.05;;;;;;;4.61;96.74;103391.91;5003776;28;20034;-64
2021/12/19 06:18:20;;;;;;;12.80;6.55;;;;;;;4.60;96.47;103385.09;4998369;28;20062;-64
2021/12/19 06:20:47;;;;;;;12.85;6.78;;;;;;;4.64;96.64;103391.84;4994737;28;20113;-64
2021/12/19 06:23:12;;;;;;;13.00;6.88;;;;;;;4.63;96.59;103392.72;5001315;28;20451;-64
2021/12/19 06:25:45;;;;;;;12.85;7.10;;;;;;;4.64;96.63;103391.84;5001361;28;20416;-64
2021/12/19 06:28:13;;;;;;;13.98;7.07;;;;;;;4.66;96.85;103394.44;5004000;28;20141;-64
2021/12/19 06:30:39;;;;;;;13.68;6.80;;;;;;;4.67;96.65;103386.69;4998776;28;20030;-65
2021/12/19 06:33:04;;;;;;;13.27;6.97;;;;;;;4.68;96.65;103383.22;5010149;28;20048;-65
2021/12/19 06:35:30;;;;;;;13.40;7.28;;;;;;;4.63;96.87;103379.88;5005494;28;20116;-64
2021/12/19 06:37:56;;;;;;;13.07;7.25;;;;;;;4.67;96.51;103376.41;4999494;28;20061;-64
2021/12/19 06:40:23;;;;;;;13.95;7.70;;;;;;;4.69;96.71;103379.78;5002528;28;20081;-65
2021/12/19 06:42:48;;;;;;;13.80;7.85;;;;;;;4.68;96.78;103383.22;5000610;28;20137;-64
2021/12/19 06:45:14;;;;;;;13.93;7.68;;;;;;;4.70;96.74;103367.78;4996011;28;20104;-64
2021/12/19 06:47:40;;;;;;;15.65;8.52;;;;;;;4.71;96.92;103369.50;5005461;28;20019;-64
2021/12/19 06:50:07;;;;;;;15.57;8.60;;;;;;;4.70;97.24;103366.09;4991849;28;20171;-64
2021/12/19 06:52:32;;;;;;;16.70;8.57;;;;;;;4.70;97.21;103360.94;4994403;28;20418;-65
2021/12/19 06:54:58;;;;;;;15.80;8.98;;;;;;;4.72;96.74;103354.03;4999681;28;20522;-64
2021/12/19 06:57:23;;;;;;;14.52;8.48;;;;;;;4.72;97.11;103343.75;5009218;28;20042;-64
2021/12/19 06:59:49;;;;;;;15.13;9.00;;;;;;;4.73;96.90;103340.31;5006913;28;20121;-64
2021/12/19 07:02:16;;;;;;;16.70;9.60;;;;;;;4.72;97.26;103341.19;4995697;28;20477;-68
2021/12/19 07:04:45;;;;;;;16.17;9.95;;;;;;;4.72;97.21;103343.75;5004468;28;20065;-64
2021/12/19 07:07:11;;;;;;;16.50;9.60;;;;;;;4.74;97.26;103342.00;4993874;28;20120;-64
2021/12/19 07:09:36;;;;;;;16.75;9.95;;;;;;;4.76;97.24;103340.28;5006042;28;20467;-64
2021/12/19 07:12:02;;;;;;;17.42;10.32;;;;;;;4.78;97.71;103346.22;4995405;28;20113;-64
2021/12/19 07:14:28;;;;;;;18.63;11.10;;;;;;;4.76;97.14;103347.97;5001374;28;20069;-64
2021/12/19 07:16:53;;;;;;;19.17;11.43;;;;;;;4.79;97.49;103345.34;5002125;28;20469;-64
2021/12/19 07:19:19;;;;;;;18.63;12.10;;;;;;;4.80;97.60;103347.03;4991702;28;20030;-64
2021/12/19 07:21:45;;;;;;;18.80;12.15;;;;;;;4.79;97.75;103347.91;5010220;28;20148;-65
2021/12/19 07:24:10;;;;;;;18.67;11.32;;;;;;;4.83;97.73;103350.44;4996373;28;20034;-64
2021/12/19 07:26:35;;;;;;;18.75;11.75;;;;;;;4.83;97.57;103346.16;5005828;28;20462;-64
2021/12/19 07:29:01;;;;;;;20.00;11.95;;;;;;;4.86;97.79;103345.25;4995854;28;20485;-64
2021/12/19 07:31:29;;;;;;;18.48;11.55;;;;;;;4.86;97.86;103340.09;4999180;28;20041;-64
2021/12/19 07:33:55;;;;;;;;;;;;;;;4.98;97.57;103345.03;5005428;28;20031;-64
2021/12/19 07:36:24;;;;;;;18.38;11.57;;;;;;;4.90;97.38;103342.59;5002027;28;20437;-64
2021/12/19 07:38:59;;;;;;;17.77;10.68;;;;;;;4.91;97.74;103339.13;4973395;28;20394;-64
2021/12/19 07:41:25;;;;;;;16.38;10.32;;;;;;;4.92;97.57;103330.53;4999158;28;20114;-64
2021/12/19 07:43:50;;;;;;;17.48;11.02;;;;;;;4.93;97.90;103328.81;4998335;28;20127;-64
2021/12/19 07:46:15;;;;;;;17.88;10.70;;;;;;;4.96;97.80;103331.34;4991200;28;20466;-63
2021/12/19 07:48:41;;;;;;;18.85;10.50;;;;;;;4.95;97.63;103330.50;5001188;28;20144;-64
2021/12/19 07:51:06;;;;;;;18.17;10.82;;;;;;;4.97;98.04;103322.75;5009905;28;20091;-64
2021/12/19 07:53:32;;;;;;;18.30;10.73;;;;;;;4.99;97.78;103336.47;4998971;28;20041;-65
2021/12/19 07:55:57;;;;;;;16.10;9.95;;;;;;;4.99;98.33;103329.59;4994738;28;20085;-64
2021/12/19 07:58:22;;;;;;;17.38;10.52;;;;;;;5.02;98.33;103334.66;4999577;28;20029;-65
2021/12/19 08:00:48;;;;;;;16.05;9.85;;;;;;;5.01;98.24;103319.25;5004213;28;20034;-64
2021/12/19 08:03:13;;;;;;;15.88;9.50;;;;;;;5.05;98.02;103318.34;5005745;28;20049;-64
2021/12/19 08:05:38;;;;;;;17.80;9.93;;;;;;;5.05;98.15;103315.75;5005927;28;20022;-65
2021/12/19 08:08:05;;;;;;;15.50;8.98;;;;;;;5.05;98.43;103310.63;5008457;28;20547;-65
2021/12/19 08:12:58;;;;;;;16.67;9.13;;;;;;;5.07;98.37;103314.00;5004778;28;20061;-65
2021/12/19 08:15:23;;;;;;;15.93;9.43;;;;;;;5.08;98.78;103315.69;5007602;28;20057;-64
2021/12/19 08:17:49;;;;;;;15.52;9.35;;;;;;;5.11;98.57;103312.22;5006606;28;20449;-64
2021/12/19 08:20:17;;;;;;;13.68;8.57;;;;;;;5.11;98.54;103315.66;5011186;28;20428;-65
2021/12/19 08:22:42;;;;;;;15.97;8.40;;;;;;;5.11;97.96;103305.34;5003320;28;20045;-65
2021/12/19 08:25:08;;;;;;;13.05;8.23;;;;;;;5.11;98.52;103305.34;5007063;28;20061;-64
2021/12/19 08:27:34;;;;;;;11.85;7.65;;;;;;;5.15;97.86;103312.13;5008335;28;20026;-65
2021/12/19 08:30:00;;;;;;;12.02;6.75;;;;;;;5.13;98.09;103303.59;5000486;28;20018;-64
2021/12/19 08:32:25;;;;;;;11.10;6.22;;;;;;;5.15;98.15;103301.84;4990875;28;20029;-64
2021/12/19 08:34:52;;;;;;;9.63;5.80;;;;;;;5.14;98.13;103304.44;5002937;28;20372;-64
2021/12/19 08:37:18;;;;;;;8.52;4.50;;;;;;;5.17;98.45;103312.97;5008587;28;20034;-64
2021/12/19 08:39:44;;;;;;;8.52;4.45;;;;;;;5.18;97.80;103306.94;5011708;28;20037;-65
2021/12/19 08:42:10;;;;;;;8.23;4.60;;;;;;;5.19;97.77;103313.78;5009888;28;20068;-64
2021/12/19 08:44:36;;;;;;;8.40;4.05;;;;;;;5.21;97.84;103306.84;5007183;28;20466;-64
2021/12/19 08:47:02;;;;;;;8.23;4.45;;;;;;;5.21;97.78;103312.00;5009099;28;20065;-64
2021/12/19 08:49:28;;;;;;;7.68;3.67;;;;;;;5.22;97.94;103308.56;5005571;28;20049;-65
2021/12/19 08:51:54;;;;;;;8.05;3.92;;;;;;;5.23;97.66;103299.13;5001074;28;20034;-64
2021/12/19 08:54:19;;;;;;;8.00;3.42;;;;;;;5.22;97.67;103303.44;5009701;28;20032;-64
2021/12/19 08:56:45;;;;;;;8.38;4.13;;;;;;;5.24;97.59;103295.69;5003383;28;20113;-64
2021/12/19 08:59:11;;;;;;;8.23;3.95;;;;;;;5.22;97.99;103303.44;5005535;28;20033;-64
2021/12/19 09:01:37;;;;;;;8.85;4.40;;;;;;;5.25;98.32;103293.06;5007059;28;20030;-64
2021/12/19 09:04:02;;;;;;;9.48;4.70;;;;;;;5.25;98.21;103300.78;5012328;28;20029;-64
2021/12/19 09:06:28;;;;;;;10.93;5.15;;;;;;;5.26;97.87;103294.75;5009193;28;20378;-64
2021/12/19 09:08:53;;;;;;;10.18;5.43;;;;;;;5.30;98.61;103288.69;5010299;28;20129;-64
2021/12/19 09:11:19;;;;;;;10.52;5.90;;;;;;;5.29;98.40;103284.41;5007405;28;20470;-64
2021/12/19 09:13:44;;;;;;;12.27;6.13;;;;;;;5.30;98.15;103291.25;5010507;28;20422;-64
2021/12/19 09:16:10;;;;;;;12.73;7.60;;;;;;;5.31;98.14;103287.78;5011496;28;20040;-63
2021/12/19 09:18:35;;;;;;;14.45;8.15;;;;;;;5.32;98.01;103283.50;5008468;28;20069;-63
2021/12/19 09:21:01;;;;;;;15.00;8.95;;;;;;;5.31;97.86;103292.94;5010544;28;20474;-63
2021/12/19 09:23:27;;;;;;;13.95;8.13;;;;;;;5.37;98.16;103285.97;5008337;28;20138;-63
2021/12/19 09:25:53;;;;;;;12.95;8.73;;;;;;;5.38;98.26;103288.50;5011761;28;20075;-63
2021/12/19 09:28:18;;;;;;;14.40;8.73;;;;;;;5.39;98.01;103284.22;5009518;28;20477;-63
2021/12/19 09:30:45;;;;;;;14.40;9.10;;;;;;;5.36;98.22;103284.28;5011311;28;20036;-64
2021/12/19 09:33:10;;;;;;;14.93;9.23;;;;;;;5.42;98.47;103285.00;5001304;28;20030;-63
2021/12/19 09:35:36;;;;;;;15.00;9.60;;;;;;;5.44;97.62;103292.69;5011397;28;20371;-63
2021/12/19 09:38:03;;;;;;;16.45;9.75;;;;;;;5.41;98.05;103285.03;5000588;28;20046;-63
2021/12/19 09:40:37;;;;;;;14.15;9.43;;;;;;;5.41;98.14;103282.47;5010328;28;20382;-63
2021/12/19 09:43:21;;;;;;;15.95;9.77;;;;;;;5.41;98.36;103282.47;5011545;28;20025;-63
2021/12/19 09:45:53;;;;;;;15.27;9.68;;;;;;;5.43;98.32;103281.53;5002761;28;20517;-64
2021/12/19 09:48:18;;;;;;;16.48;10.48;;;;;;;5.46;98.36;103280.66;4994231;28;20109;-64
2021/12/19 09:50:43;;;;;;;15.32;9.40;;;;;;;5.46;98.22;103285.81;5011187;28;20120;-63
2021/12/19 09:53:09;;;;;;;15.98;10.30;;;;;;;5.49;98.24;103290.88;5002424;28;20034;-64
2021/12/19 09:55:35;;;;;;;16.75;10.77;;;;;;;5.51;98.28;103284.81;4992199;28;20080;-63
2021/12/19 09:58:00;;;;;;;14.82;10.50;;;;;;;5.51;98.15;103289.13;5003221;28;20038;-63
2021/12/19 10:00:25;;;;;;;16.60;11.30;;;;;;;5.56;98.12;103287.28;4995548;28;20076;-64
2021/12/19 10:02:51;;;;;;;15.88;11.63;;;;;;;5.55;97.69;103286.44;5003658;28;20034;-63
2021/12/19 10:05:24;;;;;;;17.55;12.50;;;;;;;5.58;97.59;103288.13;5011154;28;20029;-64
2021/12/19 10:07:55;;;;;;;16.17;12.65;;;;;;;5.58;97.89;103285.53;5005202;28;20034;-63
2021/12/19 10:10:36;;;;;;;16.52;12.88;;;;;;;5.61;98.01;103285.47;5009180;28;20096;-65
2021/12/19 10:13:02;;;;;;;17.98;13.75;;;;;;;5.60;98.04;103281.19;4989250;28;20477;-64
2021/12/19 10:15:34;;;;;;;18.35;13.20;;;;;;;5.60;97.57;103278.63;5009850;28;20033;-64
2021/12/19 10:18:03;;;;;;;17.35;13.25;;;;;;;5.60;97.73;103273.47;5000980;28;20127;-64
2021/12/19 10:20:38;;;;;;;;;;;;;;;5.74;98.38;103271.47;5010560;28;20104;-64
2021/12/19 10:23:14;;;;;;;19.10;14.23;;;;;;;5.68;98.08;103266.44;4988886;28;19920;-63
2021/12/19 10:25:39;;;;;;;16.60;12.93;;;;;;;5.67;97.58;103262.16;5000594;28;20068;-63
2021/12/19 10:28:09;;;;;;;15.38;12.35;;;;;;;5.67;97.46;103269.03;5001349;28;20022;-64
2021/12/19 10:30:46;;;;;;;14.93;11.43;;;;;;;5.69;97.38;103257.84;5000909;28;20030;-63
2021/12/19 10:33:13;;;;;;;16.10;11.77;;;;;;;5.67;97.30;103259.59;4995532;28;20501;-64
2021/12/19 10:35:42;;;;;;;17.83;16.02;;;;;;;5.69;97.72;103257.84;5008853;28;20417;-63
2021/12/19 10:38:15;;;;;;;;;;;;;;;5.80;96.88;103253.28;4999842;28;20112;-64
2021/12/19 10:40:58;;;;;;;12.45;9.38;;;;;;;5.69;97.46;103257.84;4998811;28;19913;-63
2021/12/19 10:43:28;;;;;;;13.30;9.60;;;;;;;5.68;96.87;103255.28;4994521;28;20093;-63
2021/12/19 10:45:56;;;;;;;12.70;9.48;;;;;;;5.68;97.14;103256.16;5010689;28;20108;-66
2021/12/19 10:48:37;;;;;;;12.43;9.48;;;;;;;5.69;96.40;103242.38;4996524;28;20034;-64
2021/12/19 10:51:09;;;;;;;12.93;9.63;;;;;;;5.70;96.54;103243.22;4991810;28;20034;-64
2021/12/19 10:53:44;;;;;;;13.57;8.82;;;;;;;5.70;97.08;103243.22;4991558;28;20351;-64
2021/12/19 10:56:19;;;;;;;12.00;8.95;;;;;;;5.72;97.11;103237.16;5002884;28;20129;-64
2021/12/19 10:58:51;;;;;;;12.07;8.43;;;;;;;5.72;96.85;103236.31;5011046;28;20110;-63
2021/12/19 11:01:21;;;;;;;10.40;7.55;;;;;;;5.74;96.80;103230.25;5001139;28;20513;-64
2021/12/19 11:04:01;;;;;;;9.75;6.53;;;;;;;5.76;96.62;103228.50;5009862;28;20045;-64
2021/12/19 11:06:34;;;;;;;9.68;7.15;;;;;;;5.74;96.31;103214.81;5006658;28;20079;-63
2021/12/19 11:09:04;;;;;;;10.65;7.00;;;;;;;5.77;95.72;103214.72;5005718;28;20053;-63
2021/12/19 11:11:32;;;;;;;9.85;6.53;;;;;;;5.76;96.11;103213.03;5007106;28;20033;-63
2021/12/19 11:13:58;;;;;;;8.70;5.90;;;;;;;5.78;96.66;103195.81;5007477;28;20030;-63
2021/12/19 11:16:24;;;;;;;6.22;4.10;;;;;;;5.81;96.31;103206.06;5006758;28;20293;-63
2021/12/19 11:18:50;;;;;;;5.95;3.47;;;;;;;5.81;96.06;103195.75;5002117;28;20433;-63
2021/12/19 11:21:17;;;;;;;5.20;2.90;;;;;;;5.82;96.53;103192.28;5001811;28;20028;-64
2021/12/19 11:23:43;;;;;;;5.15;2.72;;;;;;;5.84;96.16;103190.50;5008493;28;20466;-63
2021/12/19 11:26:09;;;;;;;4.68;2.50;;;;;;;5.82;95.94;103187.13;5008282;28;20077;-64
2021/12/19 11:28:36;;;;;;;4.10;2.58;;;;;;;5.83;96.08;103182.84;5007619;28;20064;-63
2021/12/19 11:31:01;;;;;;;5.03;2.70;;;;;;;5.83;95.73;103178.53;5005136;28;20026;-65
2021/12/19 11:33:52;;;;;;;3.03;2.10;;;;;;;5.83;95.69;103168.22;5006006;28;20479;-63
2021/12/19 11:36:19;;;;;;;3.72;2.38;;;;;;;5.80;95.59;103168.31;5002572;28;20045;-63
2021/12/19 11:38:46;;;;;;;4.95;2.90;;;;;;;5.82;95.80;103176.84;5010227;28;20393;-64
2021/12/19 11:41:12;;;;;;;4.53;2.78;;;;;;;5.85;96.02;103171.63;5009589;28;20422;-64
2021/12/19 11:43:40;;;;;;;4.28;2.40;;;;;;;5.84;96.07;103159.63;5008871;28;20030;-64
2021/12/19 11:46:18;;;;;;;4.90;2.88;;;;;;;5.86;95.82;103155.28;5005357;28;20035;-63
2021/12/19 11:48:45;;;;;;;4.38;2.70;;;;;;;5.88;95.72;103154.41;5000078;28;20057;-64
2021/12/19 11:51:19;;;;;;;6.63;4.07;;;;;;;5.89;96.11;103156.94;5013700;28;20060;-65
2021/12/19 11:53:45;;;;;;;7.05;4.55;;;;;;;5.85;95.73;103150.19;5010140;28;20037;-64
2021/12/19 11:56:14;;;;;;;8.25;4.57;;;;;;;5.91;95.45;103150.06;4998385;28;20076;-65
2021/12/19 11:58:50;;;;;;;7.72;4.72;;;;;;;5.91;95.79;103149.16;4994782;28;20467;-64
2021/12/19 12:01:27;;;;;;;7.68;4.78;;;;;;;5.94;95.55;103154.28;4996174;28;20034;-65
2021/12/19 12:03:52;;;;;;;7.30;4.32;;;;;;;5.92;95.02;103144.03;4999507;28;20034;-63
2021/12/19 12:06:19;;;;;;;8.68;5.00;;;;;;;5.93;95.86;103137.13;5000800;28;20516;-63
2021/12/19 12:09:16;;;;;;;6.97;4.93;;;;;;;5.97;95.39;103136.19;5006319;28;20073;-63
2021/12/19 12:12:07;;;;;;;7.30;4.55;;;;;;;5.94;94.59;103128.53;4993861;28;20049;-64
2021/12/19 12:14:38;;;;;;;6.72;4.50;;;;;;;5.92;94.79;103136.31;5004028;28;20046;-67
2021/12/19 12:17:13;;;;;;;9.55;4.88;;;;;;;5.94;94.71;103123.38;5013238;28;20121;-63
2021/12/19 12:19:42;;;;;;;8.52;4.50;;;;;;;5.94;95.04;103128.53;5009606;28;20038;-64
2021/12/19 12:22:26;;;;;;;7.63;4.75;;;;;;;5.97;94.60;103126.72;5012238;28;20041;-64
2021/12/19 12:25:09;;;;;;;7.82;5.28;;;;;;;5.96;94.31;103117.28;5013496;28;20044;-63
2021/12/19 12:27:43;;;;;;;8.18;4.85;;;;;;;5.94;94.75;103113.91;5004858;28;20021;-64